Time;durP1;ratioP1;P1;durP2;ratioP2;P2;SDS_P1;SDS_P2;PMS_P1;PMS_P2;Temp;Humidity;BMP_temperature;BMP_pressure;BME280_temperature;BME280_humidity;BME280_pressure;Samples;Min_cycle;Max_cycle;Signal;HPM_P1;HPM_P2
2023/03/15 00:02:47;;;;;;;16.50;7.83;;;;;;;5.42;79.74;99943.11;1656435;86;21208;-88
2023/03/15 00:05:55;;;;;;;10.60;6.60;;;;;;;5.41;79.33;99943.23;1656282;86;21334;-86
2023/03/15 00:09:02;;;;;;;12.55;6.10;;;;;;;5.39;79.12;99937.47;1656544;86;21235;-87
2023/03/15 00:12:08;;;;;;;9.15;5.22;;;;;;;5.42;78.73;99934.12;1656713;83;21188;-88
2023/03/15 00:15:15;;;;;;;11.90;6.15;;;;;;;5.37;78.54;99930.00;1636760;86;21243;-88
2023/03/15 00:18:21;;;;;;;9.60;5.97;;;;;;;5.34;78.32;99928.94;1656508;83;21256;-88
2023/03/15 00:21:20;;;;;;;13.62;6.35;;;;;;;5.32;78.19;99925.53;1656361;86;21244;-86
2023/03/15 00:24:21;;;;;;;8.80;5.08;;;;;;;5.27;77.90;99919.72;1656011;86;21185;-88
2023/03/15 00:27:27;;;;;;;11.53;5.78;;;;;;;5.24;77.90;99914.59;1656507;83;21208;-87
2023/03/15 00:30:34;;;;;;;13.18;5.85;;;;;;;5.21;77.94;99902.67;1655428;83;21523;-87
2023/03/15 00:33:41;;;;;;;10.10;6.00;;;;;;;5.18;77.79;99903.00;1656469;86;21867;-88
2023/03/15 00:36:47;;;;;;;13.62;6.60;;;;;;;5.15;77.81;99895.16;1656383;83;21184;-87
2023/03/15 00:39:54;;;;;;;9.83;5.87;;;;;;;5.13;77.71;99896.67;1656260;83;21145;-88
2023/03/15 00:42:59;;;;;;;12.88;5.87;;;;;;;5.08;77.87;99899.46;1656623;82;21235;-87
2023/03/15 00:46:05;;;;;;;17.60;5.75;;;;;;;5.03;77.78;99887.72;1656435;82;21237;-87
2023/03/15 00:49:12;;;;;;;8.93;5.42;;;;;;;5.04;77.56;99892.66;1656480;82;21180;-88
2023/03/15 00:52:17;;;;;;;6.60;4.58;;;;;;;4.97;77.28;99895.61;1656552;86;21252;-87
2023/03/15 00:55:25;;;;;;;10.28;5.17;;;;;;;4.92;77.12;99887.93;1655734;86;21275;-87
2023/03/15 00:58:33;;;;;;;9.77;5.73;;;;;;;4.91;76.59;99895.72;1656907;86;21214;-89
2023/03/15 01:01:43;;;;;;;14.90;6.30;;;;;;;4.93;76.57;99902.33;1656269;86;21266;-89
2023/03/15 01:04:46;;;;;;;13.48;5.97;;;;;;;4.90;76.66;99902.14;1656082;86;21260;-88
2023/03/15 01:07:51;;;;;;;11.93;6.60;;;;;;;4.86;76.45;99897.52;1656550;86;21196;-89
2023/03/15 01:10:57;;;;;;;14.53;7.90;;;;;;;4.84;76.78;99898.16;1655366;83;21215;-87
2023/03/15 01:14:04;;;;;;;28.87;11.33;;;;;;;4.76;76.98;99893.16;1656644;83;21244;-86
2023/03/15 01:17:10;;;;;;;13.95;7.10;;;;;;;4.72;77.20;99898.52;1655306;83;21857;-88
2023/03/15 01:20:19;;;;;;;11.85;5.50;;;;;;;4.73;77.00;99905.63;1656547;83;21264;-88
2023/03/15 01:23:24;;;;;;;11.53;5.83;;;;;;;4.68;77.13;99893.89;1656444;86;21909;-89
2023/03/15 01:26:30;;;;;;;10.40;6.40;;;;;;;4.74;76.83;99897.34;1656444;82;21236;-88
2023/03/15 01:29:36;;;;;;;8.03;5.08;;;;;;;4.77;76.69;99898.92;1655790;86;21849;-87
2023/03/15 01:32:42;;;;;;;8.85;5.75;;;;;;;4.70;76.81;99906.77;1656081;86;21235;-87
2023/03/15 01:35:49;;;;;;;8.13;5.17;;;;;;;4.69;77.02;99907.78;1655870;86;21802;-88
2023/03/15 01:38:56;;;;;;;7.72;5.10;;;;;;;4.66;77.20;99900.44;1655831;86;21211;-87
2023/03/15 01:42:06;;;;;;;8.98;6.15;;;;;;;4.61;77.31;99901.77;1656974;86;21344;-87
2023/03/15 01:45:33;;;;;;;7.12;5.45;;;;;;;4.58;77.45;99901.20;1655947;86;21184;-88
2023/03/15 01:49:02;;;;;;;5.92;4.97;;;;;;;4.48;77.79;99909.36;1656229;86;21235;-89
2023/03/15 01:52:24;;;;;;;9.47;4.77;;;;;;;4.44;78.06;99901.17;1656572;86;21252;-87
2023/03/15 01:55:31;;;;;;;10.25;4.60;;;;;;;4.33;78.53;99900.85;1655439;86;21236;-88
2023/03/15 01:58:39;;;;;;;7.05;4.87;;;;;;;4.30;78.78;99913.31;1656742;86;21187;-90
2023/03/15 02:01:44;;;;;;;6.53;4.60;;;;;;;4.23;79.08;99909.97;1637645;86;21192;-89
2023/03/15 02:04:56;;;;;;;8.98;4.25;;;;;;;4.29;78.96;99914.33;1655483;86;21751;-90
2023/03/15 02:08:02;;;;;;;8.60;4.87;;;;;;;4.18;79.16;99911.77;1655380;86;21156;-89
2023/03/15 02:11:10;;;;;;;7.15;4.22;;;;;;;4.18;79.17;99915.82;1656614;86;21203;-90
2023/03/15 02:14:21;;;;;;;7.72;4.78;;;;;;;4.13;79.49;99916.76;1657174;86;21196;-89
2023/03/15 02:17:28;;;;;;;6.70;4.35;;;;;;;4.05;79.60;99913.44;1656558;86;21231;-89
2023/03/15 02:20:51;;;;;;;7.17;5.47;;;;;;;4.03;79.45;99919.48;1655050;86;21200;-88
2023/03/15 02:24:15;;;;;;;20.88;9.10;;;;;;;3.99;79.47;99919.41;1656720;86;21209;-89
2023/03/15 02:27:23;;;;;;;7.42;5.53;;;;;;;3.95;79.52;99918.02;1656562;86;21200;-89
2023/03/15 02:30:29;;;;;;;18.67;6.67;;;;;;;3.93;79.64;99913.73;1655551;86;21236;-89
2023/03/15 02:33:50;;;;;;;9.90;5.08;;;;;;;3.94;79.74;99916.78;1655355;86;21283;-87
2023/03/15 02:36:56;;;;;;;7.65;5.37;;;;;;;3.95;79.84;99921.19;1655561;86;21287;-88
2023/03/15 02:40:02;;;;;;;10.68;5.20;;;;;;;3.92;79.92;99925.05;1656454;86;21184;-88
2023/03/15 02:43:11;;;;;;;11.03;6.53;;;;;;;3.92;79.66;99925.55;1655275;86;21215;-88
2023/03/15 02:46:16;;;;;;;9.78;4.65;;;;;;;3.96;79.49;99921.57;1656251;86;21219;-88
2023/03/15 02:49:23;;;;;;;9.35;5.83;;;;;;;4.01;79.44;99925.55;1655843;83;21279;-87
2023/03/15 02:52:28;;;;;;;8.10;5.03;;;;;;;3.97;79.34;99928.69;1655371;83;21204;-88
2023/03/15 02:55:34;;;;;;;9.20;3.77;;;;;;;3.98;79.27;99924.97;1656628;86;21284;-89
2023/03/15 02:58:39;;;;;;;8.50;4.08;;;;;;;3.92;79.39;99926.91;1656417;86;21196;-86
2023/03/15 03:01:46;;;;;;;12.78;4.67;;;;;;;3.87;79.29;99925.13;1656770;86;21197;-88
2023/03/15 03:04:53;;;;;;;8.93;4.42;;;;;;;3.76;79.34;99917.48;1655624;86;21242;-87
2023/03/15 03:08:01;;;;;;;9.98;4.50;;;;;;;3.67;79.44;99911.61;1656671;86;21192;-87
2023/03/15 03:11:06;;;;;;;8.33;4.03;;;;;;;3.57;79.72;99916.13;1656640;86;21184;-87
2023/03/15 03:14:13;;;;;;;9.05;4.97;;;;;;;3.49;79.84;99928.17;1656308;86;21196;-87
2023/03/15 03:17:21;;;;;;;8.68;4.65;;;;;;;3.35;80.69;99927.23;1655226;86;21204;-87
2023/03/15 03:20:28;;;;;;;7.03;4.35;;;;;;;3.23;81.55;99921.06;1656373;86;21228;-87
2023/03/15 03:23:35;;;;;;;11.20;4.80;;;;;;;3.20;81.84;99916.81;1656625;86;21207;-87
2023/03/15 03:26:40;;;;;;;7.95;5.80;;;;;;;3.07;82.58;99916.20;1655957;86;21235;-87
2023/03/15 03:29:46;;;;;;;8.53;4.75;;;;;;;3.02;83.05;99917.11;1655945;86;21228;-87
2023/03/15 03:32:52;;;;;;;11.78;5.08;;;;;;;2.99;83.41;99916.03;1656593;86;21470;-88
2023/03/15 03:35:58;;;;;;;13.10;5.78;;;;;;;3.02;83.39;99917.11;1655290;86;21302;-88
2023/03/15 03:39:03;;;;;;;9.38;4.45;;;;;;;3.02;83.37;99918.47;1656626;86;21211;-87
2023/03/15 03:42:09;;;;;;;9.18;4.78;;;;;;;2.98;83.28;99914.33;1656599;86;21193;-88
2023/03/15 03:45:17;;;;;;;7.25;4.40;;;;;;;2.96;83.45;99906.83;1656678;86;21247;-88
2023/03/15 03:48:24;;;;;;;14.73;5.20;;;;;;;2.93;83.53;99904.42;1656338;86;21266;-86
2023/03/15 03:51:32;;;;;;;13.53;5.67;;;;;;;2.97;83.39;99893.70;1656596;86;21760;-88
2023/03/15 03:54:37;;;;;;;9.65;6.40;;;;;;;2.96;83.24;99878.47;1656586;86;21188;-88
2023/03/15 03:57:43;;;;;;;17.60;13.03;;;;;;;2.94;82.98;99871.01;1655925;86;21279;-88
2023/03/15 04:00:55;;;;;;;12.43;8.43;;;;;;;2.93;82.53;99870.66;1656536;82;21203;-88
2023/03/15 04:03:50;;;;;;;12.50;8.98;;;;;;;2.85;82.58;99869.13;1656508;86;21192;-87
2023/03/15 04:06:35;;;;;;;10.63;5.22;;;;;;;2.79;82.59;99858.39;1656178;86;21247;-87
2023/03/15 04:09:28;;;;;;;13.65;6.28;;;;;;;2.75;82.48;99869.10;1656389;86;21184;-87
2023/03/15 04:12:15;;;;;;;9.23;7.80;;;;;;;2.70;82.47;99865.46;1655500;86;21148;-89
2023/03/15 04:15:10;;;;;;;10.30;7.12;;;;;;;2.65;82.51;99865.02;1655018;86;21199;-88
2023/03/15 04:17:57;;;;;;;8.78;5.22;;;;;;;2.59;82.76;99880.89;1655121;86;21239;-88
2023/03/15 04:21:09;;;;;;;13.05;9.00;;;;;;;2.52;82.96;99888.19;1655599;86;21247;-87
2023/03/15 04:24:13;;;;;;;11.10;7.33;;;;;;;2.50;83.30;99887.98;1655934;86;21274;-88
2023/03/15 04:27:23;;;;;;;6.62;5.22;;;;;;;2.49;83.48;99897.05;1655661;86;21259;-87
2023/03/15 04:30:35;;;;;;;5.00;4.50;;;;;;;2.47;83.81;99907.14;1654684;83;21213;-89
2023/03/15 04:33:43;;;;;;;5.03;4.45;;;;;;;2.50;84.05;99909.58;1647326;86;21236;-89
2023/03/15 04:36:53;;;;;;;9.20;5.42;;;;;;;2.52;84.23;99898.14;1654821;86;21200;-89
2023/03/15 04:40:05;;;;;;;6.87;4.55;;;;;;;2.56;84.36;99893.69;1652877;86;21208;-89
2023/03/15 04:43:12;;;;;;;8.18;4.20;;;;;;;2.65;84.29;99897.42;1656306;86;21223;-87
2023/03/15 04:46:19;;;;;;;7.65;4.40;;;;;;;2.75;84.22;99892.91;1645211;86;21232;-88
2023/03/15 04:49:33;;;;;;;6.60;4.08;;;;;;;2.90;83.68;99892.53;1655395;86;21203;-88
2023/03/15 04:52:38;;;;;;;6.85;4.00;;;;;;;3.01;83.05;99897.81;1638404;86;21220;-89
2023/03/15 04:56:01;;;;;;;7.35;5.25;;;;;;;3.08;82.78;99898.48;1613957;88;21182;-88
2023/03/15 04:59:10;;;;;;;7.67;5.22;;;;;;;3.18;82.46;99889.05;1652931;86;21280;-89
2023/03/15 05:02:33;;;;;;;9.18;6.70;;;;;;;3.27;81.96;99887.36;1656607;86;21199;-87
2023/03/15 05:05:43;;;;;;;15.90;4.50;;;;;;;3.35;81.09;99883.47;1656478;83;21291;-87
2023/03/15 05:08:51;;;;;;;8.55;6.17;;;;;;;3.37;80.49;99876.56;1653436;86;21211;-88
2023/03/15 05:11:57;;;;;;;14.38;6.37;;;;;;;3.40;80.52;99883.05;1656358;86;21184;-89
2023/03/15 05:15:04;;;;;;;9.45;4.83;;;;;;;3.45;80.15;99872.66;1653006;86;21192;-88
2023/03/15 05:18:20;;;;;;;10.50;4.62;;;;;;;3.43;80.21;99868.72;1655955;86;21357;-88
2023/03/15 05:21:32;;;;;;;10.00;4.37;;;;;;;3.51;80.11;99881.05;1655226;86;21789;-88
2023/03/15 05:24:56;;;;;;;10.40;5.78;;;;;;;3.58;79.69;99882.70;1614302;88;21198;-87
2023/03/15 05:28:04;;;;;;;11.25;4.85;;;;;;;3.60;79.71;99887.46;1652726;86;21235;-86
2023/03/15 05:31:19;;;;;;;14.38;4.50;;;;;;;3.65;79.44;99889.73;1625543;86;21252;-87
2023/03/15 05:34:37;;;;;;;9.88;4.75;;;;;;;3.70;79.56;99878.84;1654458;86;21256;-86
2023/03/15 05:37:47;;;;;;;9.50;5.37;;;;;;;3.83;78.96;99879.41;1655413;86;21239;-88
2023/03/15 05:41:01;;;;;;;7.67;5.33;;;;;;;3.95;78.60;99878.77;1641258;86;21792;-88
2023/03/15 05:43:55;;;;;;;14.70;5.10;;;;;;;4.04;77.51;99869.75;1644977;86;21256;-87
2023/03/15 05:47:06;;;;;;;9.03;5.25;;;;;;;4.08;77.54;99871.68;1654578;86;21259;-87
2023/03/15 05:50:14;;;;;;;10.03;5.35;;;;;;;4.12;77.19;99860.92;1637420;86;21942;-87
2023/03/15 05:53:24;;;;;;;15.23;6.35;;;;;;;4.26;76.80;99861.81;1672604;85;21256;-87
2023/03/15 05:56:34;;;;;;;14.87;5.50;;;;;;;4.42;76.54;99846.79;1668761;85;21268;-88
2023/03/15 05:59:41;;;;;;;13.00;6.55;;;;;;;4.42;76.54;99846.79;1655491;86;21744;-87
2023/03/15 06:02:50;;;;;;;13.93;7.10;;;;;;;4.56;76.01;99839.06;1681896;84;21176;-86
2023/03/15 06:05:58;;;;;;;20.50;5.55;;;;;;;4.64;75.62;99841.00;1679551;83;21200;-87
2023/03/15 06:09:04;;;;;;;11.50;5.33;;;;;;;4.72;75.18;99834.84;1669518;85;21134;-87
2023/03/15 06:12:12;;;;;;;15.13;6.72;;;;;;;4.76;74.58;99835.75;1657389;85;21216;-87
2023/03/15 06:15:18;;;;;;;11.95;6.53;;;;;;;4.82;74.44;99827.52;1670568;85;21124;-86
2023/03/15 06:18:24;;;;;;;20.02;7.10;;;;;;;4.91;74.14;99831.17;1673503;85;21238;-88
2023/03/15 06:21:30;;;;;;;15.15;7.53;;;;;;;4.98;74.05;99829.04;1669729;85;21635;-87
2023/03/15 06:24:38;;;;;;;16.05;7.08;;;;;;;5.07;73.88;99841.69;1661316;85;21201;-87
2023/03/15 06:27:45;;;;;;;14.75;6.87;;;;;;;5.18;73.20;99840.64;1666306;85;21243;-88
2023/03/15 06:30:52;;;;;;;10.85;6.25;;;;;;;5.27;73.50;99831.59;1634116;86;21193;-88
2023/03/15 06:34:00;;;;;;;21.87;9.28;;;;;;;5.41;72.56;99829.31;1655651;86;21202;-86
2023/03/15 06:37:06;;;;;;;16.80;8.10;;;;;;;5.45;71.49;99838.34;1662479;86;21219;-87
2023/03/15 06:40:14;;;;;;;26.07;6.97;;;;;;;5.52;72.12;99849.45;1648011;86;21376;-87
2023/03/15 06:43:18;;;;;;;11.75;6.40;;;;;;;5.71;70.90;99846.56;1659059;85;21191;-88
2023/03/15 06:46:19;;;;;;;;;;;;;;;5.78;70.65;99841.35;1660484;86;21184;-88
2023/03/15 06:49:25;;;;;;;24.87;10.43;;;;;;;5.77;70.52;99836.43;1658663;86;20218;-86
2023/03/15 06:52:31;;;;;;;16.17;7.72;;;;;;;5.88;70.72;99830.77;1657858;86;21215;-87
2023/03/15 06:55:39;;;;;;;26.60;10.25;;;;;;;6.08;70.79;99819.75;1662486;86;21247;-86
2023/03/15 06:58:45;;;;;;;29.20;11.83;;;;;;;6.27;69.28;99833.11;1662177;86;21179;-86
2023/03/15 07:01:52;;;;;;;24.67;10.80;;;;;;;6.42;69.63;99832.51;1656522;86;21191;-87
2023/03/15 07:05:00;;;;;;;25.50;11.40;;;;;;;6.46;68.94;99832.03;1655379;86;21197;-88
2023/03/15 07:08:06;;;;;;;44.48;16.20;;;;;;;6.49;69.80;99819.45;1668311;86;21215;-87
2023/03/15 07:11:12;;;;;;;45.28;16.75;;;;;;;6.63;68.86;99809.36;1666115;86;21572;-88
2023/03/15 07:14:17;;;;;;;34.20;16.20;;;;;;;6.73;69.27;99821.47;1668227;86;21831;-86
2023/03/15 07:17:18;;;;;;;31.25;15.55;;;;;;;6.88;68.92;99817.09;1666567;86;21232;-88
2023/03/15 07:20:23;;;;;;;17.87;9.58;;;;;;;6.88;67.81;99804.86;1664818;86;21255;-86
2023/03/15 07:23:30;;;;;;;17.98;8.60;;;;;;;6.94;68.40;99808.78;1650065;86;21717;-86
2023/03/15 07:26:35;;;;;;;13.80;8.13;;;;;;;7.09;68.31;99810.35;1658235;86;21181;-85
2023/03/15 07:29:41;;;;;;;14.43;8.05;;;;;;;7.18;67.82;99804.77;1664189;86;21775;-87
2023/03/15 07:32:48;;;;;;;14.03;7.80;;;;;;;7.22;66.63;99806.65;1650999;86;21482;-87
2023/03/15 07:35:54;;;;;;;14.55;7.65;;;;;;;7.25;67.10;99804.97;1666787;82;21259;-87
2023/03/15 07:39:00;;;;;;;22.90;9.85;;;;;;;7.38;67.81;99797.14;1657071;86;21905;-86
2023/03/15 07:42:06;;;;;;;12.35;7.22;;;;;;;7.51;66.88;99797.16;1657722;84;21204;-86
2023/03/15 07:45:14;;;;;;;40.95;16.30;;;;;;;7.62;67.09;99799.54;1668085;86;21301;-86
2023/03/15 07:48:19;;;;;;;24.32;11.85;;;;;;;7.71;65.68;99801.23;1664612;82;22358;-88
2023/03/15 07:51:26;;;;;;;16.40;8.78;;;;;;;7.77;65.88;99793.78;1660979;86;21252;-86
2023/03/15 07:54:33;;;;;;;22.35;11.10;;;;;;;7.87;66.47;99782.19;1652499;86;21283;-86
2023/03/15 07:57:38;;;;;;;19.32;9.83;;;;;;;8.00;64.83;99780.80;1652492;83;21192;-86
2023/03/15 08:00:46;;;;;;;24.15;11.60;;;;;;;8.02;65.29;99779.61;1661755;86;21264;-87
2023/03/15 08:03:51;;;;;;;24.18;10.85;;;;;;;8.09;65.38;99785.20;1662975;86;21567;-87
2023/03/15 08:06:57;;;;;;;21.97;11.57;;;;;;;8.18;65.35;99776.84;1660651;84;21227;-87
2023/03/15 08:10:04;;;;;;;25.40;12.47;;;;;;;8.27;64.52;99774.95;1660233;85;21259;-86
2023/03/15 08:13:12;;;;;;;36.40;15.85;;;;;;;8.29;64.25;99772.92;1665729;86;21184;-86
2023/03/15 08:16:18;;;;;;;27.20;13.72;;;;;;;8.34;64.63;99771.03;1664197;86;21223;-87
2023/03/15 08:19:24;;;;;;;35.28;15.72;;;;;;;8.41;64.13;99770.69;1665651;86;21371;-87
2023/03/15 08:22:31;;;;;;;31.20;14.55;;;;;;;8.38;63.85;99771.06;1657063;86;21247;-86
2023/03/15 08:25:39;;;;;;;29.42;15.70;;;;;;;8.37;63.28;99767.45;1660907;86;21972;-86
2023/03/15 08:28:45;;;;;;;27.55;13.83;;;;;;;8.39;64.32;99771.39;1662675;86;21205;-87
2023/03/15 08:31:51;;;;;;;34.85;13.70;;;;;;;8.50;63.83;99781.05;1663701;85;21191;-87
2023/03/15 08:34:57;;;;;;;23.67;12.37;;;;;;;8.48;63.14;99765.41;1661992;85;21176;-87
2023/03/15 08:38:03;;;;;;;28.83;13.00;;;;;;;8.47;62.95;99759.59;1668548;85;21195;-87
2023/03/15 08:41:10;;;;;;;22.50;12.30;;;;;;;8.45;62.84;99759.26;1662829;85;21235;-87
2023/03/15 08:44:17;;;;;;;23.12;13.65;;;;;;;8.49;63.76;99761.12;1662861;85;21215;-86
2023/03/15 08:47:23;;;;;;;26.80;13.65;;;;;;;8.48;63.16;99764.04;1664924;85;21245;-86
2023/03/15 08:50:30;;;;;;;21.35;10.80;;;;;;;8.51;64.57;99761.78;1662471;85;21215;-87
2023/03/15 08:53:37;;;;;;;28.80;14.15;;;;;;;8.66;63.66;99766.02;1661073;85;21298;-86
2023/03/15 08:56:43;;;;;;;17.50;11.10;;;;;;;8.61;64.60;99760.21;1666338;85;21798;-86
2023/03/15 08:59:49;;;;;;;18.07;9.93;;;;;;;8.74;64.12;99761.02;1667879;85;21239;-86
2023/03/15 09:02:57;;;;;;;17.57;11.05;;;;;;;8.82;63.98;99758.25;1669623;85;21160;-86
2023/03/15 09:06:06;;;;;;;17.15;9.85;;;;;;;8.85;63.33;99753.82;1678935;81;21172;-86
2023/03/15 09:09:16;;;;;;;18.48;8.98;;;;;;;8.82;63.82;99756.38;1654888;86;21208;-88
2023/03/15 09:12:19;;;;;;;17.32;10.08;;;;;;;8.87;63.60;99745.78;1665843;84;22365;-88
2023/03/15 09:15:25;;;;;;;15.10;9.98;;;;;;;8.89;63.79;99741.02;1673784;85;21157;-87
2023/03/15 09:18:32;;;;;;;26.02;10.48;;;;;;;8.90;63.42;99748.16;1669146;85;21223;-87
2023/03/15 09:21:39;;;;;;;19.12;10.15;;;;;;;9.01;64.64;99740.59;1666843;85;21766;-88
2023/03/15 09:24:44;;;;;;;25.15;12.70;;;;;;;9.21;65.01;99737.20;1669216;85;21731;-86
2023/03/15 09:27:50;;;;;;;25.17;13.45;;;;;;;9.29;62.33;99726.75;1669700;85;21184;-87
2023/03/15 09:30:55;;;;;;;26.85;15.03;;;;;;;9.19;62.11;99732.97;1668944;85;21208;-87
2023/03/15 09:34:01;;;;;;;29.90;14.20;;;;;;;9.16;62.62;99729.23;1670987;85;21260;-87
2023/03/15 09:37:07;;;;;;;20.90;11.68;;;;;;;9.20;63.32;99729.20;1670059;85;21460;-87
2023/03/15 09:40:24;;;;;;;22.93;12.28;;;;;;;9.26;63.18;99717.55;1664364;85;21235;-88
2023/03/15 09:43:54;;;;;;;27.67;14.90;;;;;;;9.40;64.14;99707.20;1672050;85;21259;-87
2023/03/15 09:47:25;;;;;;;31.62;15.68;;;;;;;9.50;63.11;99701.48;1674085;85;21188;-87
2023/03/15 09:50:44;;;;;;;29.80;14.55;;;;;;;9.58;61.92;99702.78;1671200;85;21746;-87
2023/03/15 09:54:04;;;;;;;32.35;16.57;;;;;;;9.64;62.02;99710.75;1677880;85;21750;-87
2023/03/15 09:57:16;;;;;;;27.90;15.08;;;;;;;9.63;61.59;99703.08;1678746;85;21212;-87
2023/03/15 10:00:20;;;;;;;26.45;14.80;;;;;;;9.64;61.72;99690.27;1652600;85;21192;-87
2023/03/15 10:03:56;;;;;;;32.33;16.70;;;;;;;9.62;61.23;99677.33;1650808;86;21184;-87
2023/03/15 10:07:05;;;;;;;30.23;13.45;;;;;;;9.61;62.00;99674.28;1655848;86;21266;-87
2023/03/15 10:10:13;;;;;;;24.20;12.65;;;;;;;9.76;61.52;99675.14;1670328;85;21183;-87
2023/03/15 10:13:36;;;;;;;26.85;12.60;;;;;;;9.84;61.57;99675.06;1637603;85;21176;-88
2023/03/15 10:16:55;;;;;;;25.60;13.30;;;;;;;9.85;61.67;99672.66;1672146;85;21188;-86
2023/03/15 10:20:17;;;;;;;24.10;14.23;;;;;;;9.86;61.76;99678.44;1672822;85;21188;-87
2023/03/15 10:23:36;;;;;;;27.40;14.07;;;;;;;9.95;60.98;99673.74;1663086;85;21184;-87
2023/03/15 10:26:43;;;;;;;32.03;14.07;;;;;;;10.07;61.63;99675.48;1666114;85;21108;-87
2023/03/15 10:29:50;;;;;;;31.35;14.30;;;;;;;10.20;62.19;99667.47;1668388;84;21239;-87
2023/03/15 10:33:09;;;;;;;24.57;13.03;;;;;;;10.38;61.48;99667.95;1668567;85;21168;-88
2023/03/15 10:36:24;;;;;;;22.25;12.28;;;;;;;10.48;60.60;99660.82;1656922;86;21242;-87
2023/03/15 10:39:31;;;;;;;33.45;16.55;;;;;;;10.48;60.44;99663.03;1652030;86;21884;-87
2023/03/15 10:42:38;;;;;;;28.83;14.68;;;;;;;10.56;60.54;99644.83;1653930;86;21277;-87
2023/03/15 10:45:45;;;;;;;30.30;16.42;;;;;;;10.67;60.49;99631.48;1661451;86;21191;-87
2023/03/15 10:49:07;;;;;;;35.03;16.23;;;;;;;10.78;60.18;99632.89;1651443;86;21895;-86
2023/03/15 10:52:12;;;;;;;27.50;13.75;;;;;;;11.02;59.14;99634.39;1656782;84;21211;-87
2023/03/15 10:55:22;;;;;;;25.40;12.53;;;;;;;11.06;58.93;99624.75;1650878;86;21768;-86
2023/03/15 10:58:33;;;;;;;23.95;14.73;;;;;;;11.12;58.13;99631.33;1657467;86;22224;-86
2023/03/15 11:01:40;;;;;;;25.72;13.08;;;;;;;11.11;57.67;99626.91;1651000;86;21202;-87
2023/03/15 11:04:51;;;;;;;27.87;11.43;;;;;;;10.93;58.07;99619.99;1655066;86;21202;-87
2023/03/15 11:08:04;;;;;;;27.62;11.83;;;;;;;10.85;58.93;99617.90;1652511;86;21228;-87
2023/03/15 11:11:05;;;;;;;28.55;12.50;;;;;;;10.94;58.74;99614.84;1663361;86;21790;-87
2023/03/15 11:14:12;;;;;;;17.65;10.82;;;;;;;10.98;58.83;99602.47;1663959;86;21270;-87
2023/03/15 11:17:28;;;;;;;20.30;9.85;;;;;;;11.02;59.95;99607.03;1628977;86;21183;-86
2023/03/15 11:20:45;;;;;;;19.35;11.55;;;;;;;11.18;60.00;99612.22;1649627;86;21254;-87
2023/03/15 11:23:55;;;;;;;21.87;11.93;;;;;;;11.32;58.39;99624.12;1657846;86;21730;-87
2023/03/15 11:27:03;;;;;;;29.52;13.88;;;;;;;11.35;58.14;99618.80;1656028;86;21222;-87
2023/03/15 11:30:05;;;;;;;21.52;12.85;;;;;;;11.33;57.43;99629.08;1651272;86;22482;-87
2023/03/15 11:33:15;;;;;;;21.17;12.20;;;;;;;11.31;57.35;99618.34;1654614;86;21147;-87
2023/03/15 11:36:26;;;;;;;20.70;13.25;;;;;;;11.27;57.39;99622.51;1641173;86;21235;-87
2023/03/15 11:39:44;;;;;;;26.50;13.00;;;;;;;11.20;56.97;99621.62;1662148;85;22096;-87
2023/03/15 11:43:07;;;;;;;36.05;13.90;;;;;;;11.14;57.20;99622.38;1657691;86;21598;-87
2023/03/15 11:46:32;;;;;;;26.57;12.13;;;;;;;11.15;57.55;99619.97;1658674;85;21176;-86
2023/03/15 11:49:54;;;;;;;28.77;13.58;;;;;;;11.27;57.99;99617.03;1667056;86;21782;-87
2023/03/15 11:53:02;;;;;;;26.93;14.40;;;;;;;11.29;57.72;99629.98;1666942;86;21534;-86
2023/03/15 11:56:32;;;;;;;25.60;14.03;;;;;;;11.40;58.29;99628.10;1662289;86;21189;-86
2023/03/15 11:59:42;;;;;;;29.77;14.93;;;;;;;11.48;57.90;99601.95;1665905;86;21554;-86
2023/03/15 12:03:01;;;;;;;34.30;14.07;;;;;;;11.56;57.51;99595.98;1638283;86;22192;-87
2023/03/15 12:06:26;;;;;;;29.77;14.98;;;;;;;11.62;57.37;99593.30;1662684;85;21216;-87
2023/03/15 12:09:45;;;;;;;31.73;15.45;;;;;;;11.62;57.19;99591.06;1653034;86;21357;-86
2023/03/15 12:12:57;;;;;;;24.02;14.87;;;;;;;11.65;57.15;99587.41;1667369;86;21204;-86
2023/03/15 12:16:03;;;;;;;28.85;15.03;;;;;;;11.71;56.80;99587.95;1670662;86;21859;-86
2023/03/15 12:19:11;;;;;;;32.58;14.83;;;;;;;11.66;56.35;99595.94;1663918;86;21188;-87
2023/03/15 12:22:24;;;;;;;25.37;13.60;;;;;;;11.62;56.95;99592.43;1676008;85;21749;-86
2023/03/15 12:25:38;;;;;;;35.15;13.35;;;;;;;11.69;56.75;99594.70;1649829;86;21207;-86
2023/03/15 12:29:08;;;;;;;24.70;13.03;;;;;;;11.67;57.70;99589.96;1633227;87;21833;-86
2023/03/15 12:32:14;;;;;;;29.10;14.90;;;;;;;11.66;57.45;99583.61;1637754;87;21182;-87
2023/03/15 12:35:24;;;;;;;33.65;14.58;;;;;;;11.72;56.89;99588.30;1635246;85;21491;-87
2023/03/15 12:38:29;;;;;;;27.25;13.13;;;;;;;11.75;56.76;99583.77;1649038;87;21220;-86
2023/03/15 12:41:50;;;;;;;34.33;13.70;;;;;;;11.81;56.50;99586.26;1658903;86;21165;-86
2023/03/15 12:44:56;;;;;;;38.13;13.18;;;;;;;11.81;56.65;99583.52;1664638;86;21197;-85
2023/03/15 12:48:11;;;;;;;19.98;11.57;;;;;;;11.83;56.94;99578.70;1664716;86;21153;-86
2023/03/15 12:51:18;;;;;;;22.73;13.00;;;;;;;11.84;57.34;99574.91;1656868;85;21831;-86
2023/03/15 12:54:24;;;;;;;19.48;10.85;;;;;;;11.82;57.54;99580.25;1655611;85;21172;-86
2023/03/15 12:57:34;;;;;;;27.25;13.03;;;;;;;11.84;57.74;99585.86;1644704;86;21575;-87
2023/03/15 13:00:40;;;;;;;26.37;12.33;;;;;;;11.85;58.20;99583.44;1647988;87;21617;-86
2023/03/15 13:03:47;;;;;;;17.37;11.28;;;;;;;11.91;57.62;99585.39;1633708;86;21225;-87
2023/03/15 13:07:33;;;;;;;22.85;12.75;;;;;;;11.85;57.03;99592.19;1653313;86;21256;-86
2023/03/15 13:10:49;;;;;;;20.85;11.95;;;;;;;11.82;57.57;99596.20;1626479;87;21240;-86
2023/03/15 13:14:05;;;;;;;24.70;11.88;;;;;;;11.84;57.54;99592.71;1633552;86;21256;-87
2023/03/15 13:17:16;;;;;;;15.75;9.88;;;;;;;11.88;57.64;99583.05;1652414;85;21264;-86
2023/03/15 13:20:43;;;;;;;30.30;13.70;;;;;;;11.95;57.28;99580.33;1643692;85;21216;-87
2023/03/15 13:23:58;;;;;;;23.60;11.90;;;;;;;11.94;56.80;99578.11;1648193;86;21821;-86
2023/03/15 13:27:33;;;;;;;23.83;10.48;;;;;;;11.94;57.40;99574.00;1622762;88;21216;-87
2023/03/15 13:30:58;;;;;;;17.73;10.72;;;;;;;11.98;57.49;99571.71;1633979;85;21204;-86
2023/03/15 13:34:19;;;;;;;23.67;10.35;;;;;;;11.97;57.29;99574.98;1665097;86;21218;-87
2023/03/15 13:37:28;;;;;;;17.37;10.50;;;;;;;12.00;57.48;99572.38;1643811;87;21279;-86
2023/03/15 13:40:34;;;;;;;20.72;10.05;;;;;;;11.98;57.07;99564.33;1644096;87;21196;-87
2023/03/15 13:43:44;;;;;;;24.20;10.78;;;;;;;11.93;56.88;99562.72;1645702;86;21586;-87
2023/03/15 13:46:50;;;;;;;13.63;9.77;;;;;;;11.85;57.31;99556.56;1665894;86;21210;-87
2023/03/15 13:49:59;;;;;;;19.17;10.18;;;;;;;11.83;57.32;99557.30;1666549;86;21168;-87
2023/03/15 13:53:07;;;;;;;18.70;11.97;;;;;;;11.79;57.51;99540.39;1639520;86;21172;-86
2023/03/15 13:56:14;;;;;;;15.50;9.25;;;;;;;11.77;57.85;99537.86;1643845;87;21193;-87
2023/03/15 13:59:12;;;;;;;17.90;10.32;;;;;;;11.73;58.15;99543.42;1644500;87;21189;-86
2023/03/15 14:02:27;;;;;;;24.57;10.85;;;;;;;11.70;58.50;99548.45;1644807;84;21161;-87
2023/03/15 14:05:40;;;;;;;14.45;9.85;;;;;;;11.67;58.76;99544.77;1643966;87;21300;-87
2023/03/15 14:08:46;;;;;;;19.37;9.55;;;;;;;11.65;58.94;99553.16;1644016;87;21200;-86
2023/03/15 14:11:55;;;;;;;27.02;11.20;;;;;;;11.61;58.98;99549.13;1643060;87;21240;-87
2023/03/15 14:15:01;;;;;;;19.60;11.20;;;;;;;11.58;59.32;99543.23;1625032;87;21268;-87
2023/03/15 14:18:20;;;;;;;13.10;9.73;;;;;;;11.55;59.62;99543.63;1643321;87;21220;-86
2023/03/15 14:21:24;;;;;;;18.62;10.72;;;;;;;11.51;59.77;99548.12;1643975;87;21192;-86
2023/03/15 14:24:24;;;;;;;21.77;11.70;;;;;;;11.47;59.90;99544.61;1644193;87;21150;-87
2023/03/15 14:27:34;;;;;;;21.93;10.23;;;;;;;11.48;60.83;99544.97;1644411;85;21236;-86
2023/03/15 14:30:43;;;;;;;20.10;11.63;;;;;;;11.50;60.75;99540.12;1624359;87;22557;-87
2023/03/15 14:33:48;;;;;;;28.12;11.65;;;;;;;11.49;60.75;99544.75;1644113;87;21220;-87
2023/03/15 14:36:58;;;;;;;17.75;10.85;;;;;;;11.50;60.78;99537.38;1643142;87;21240;-87
2023/03/15 14:40:03;;;;;;;19.42;10.85;;;;;;;11.44;60.75;99528.61;1640159;86;21248;-87
2023/03/15 14:43:11;;;;;;;;;;;;;;;11.44;60.92;99532.72;1617303;89;21196;-87
2023/03/15 14:46:17;;;;;;;21.40;13.68;;;;;;;11.42;60.97;99526.05;1640547;87;20636;-87